PWSweather.com
Personal Weather Stations
Station Observations
KCTHAMDEN
Dunbar Hill, Hamden, CT 06514

Dunbar HillHamden, CT 06514

Lat: 41.365437, Lon: -72.956532

Elevation: 200

Station Type: Davis Vantage Pro2+

www.hamdenweather.com

High Low Average
Temperature 56.7°F13.7°C 34.9°F1.6°C 44.6°F7.0°C
Dew Point 56.1°F13.4°C 33.6°F0.9°C 42.7°F5.9°C
Winds 10.3 mph 16.6 kmh Calm Calm 4.0 mph ESE6.4 kmh ESE
Wind Gusts 20.0 mph32.2 kmh -- 8.0 mph12.9 kmh
Humidity 98% 78% 93%
Pressure 30.23 in1023.7 mb 29.50 in999.0 mb -
Precipitation 2.80 in71.1 mm - -
Hour Temp Dew Point Humidity Winds Wind Gusts Pressure Precip Precip Rate Daily Precip Total
12:00 AM 34.7°F1.5°C 33.2°F0.7°C 94% 3.9 mph NE6.3 kmh NE 7.0 mph11.3 kmh 30.24 in1024.0 mb - 0.01 in0.3 mm 0.01 in0.3 mm
12:15 AM 34.8°F1.6°C 33.2°F0.7°C 94% 1.0 mph NNW1.6 kmh NNW 3.0 mph4.8 kmh 30.23 in1023.7 mb - 0.01 in0.3 mm 0.01 in0.3 mm
12:30 AM 34.8°F1.6°C 33.2°F0.7°C 94% 1.1 mph N1.8 kmh N 4.0 mph6.4 kmh 30.24 in1024.0 mb - 0.02 in0.5 mm 0.03 in0.8 mm
12:45 AM 34.8°F1.6°C 33.5°F0.8°C 95% 1.7 mph NNE2.7 kmh NNE 5.0 mph8.0 kmh 30.23 in1023.7 mb - 0.04 in1.0 mm 0.06 in1.5 mm
01:00 AM 34.9°F1.6°C 33.6°F0.9°C 95% 6.3 mph NE10.1 kmh NE 11.0 mph17.7 kmh 30.23 in1023.7 mb - 0.01 in0.3 mm 0.07 in1.8 mm
01:15 AM 34.9°F1.6°C 33.6°F0.9°C 95% 3.9 mph N6.3 kmh N 5.0 mph8.0 kmh 30.23 in1023.7 mb - 0.04 in1.0 mm 0.11 in2.8 mm
01:30 AM 35.0°F1.7°C 33.7°F0.9°C 95% 7.2 mph NE11.6 kmh NE 14.0 mph22.5 kmh 30.21 in1023.0 mb - 0.02 in0.5 mm 0.12 in3.0 mm
01:45 AM 34.9°F1.6°C 33.6°F0.9°C 95% 5.5 mph NE8.9 kmh NE 16.0 mph25.7 kmh 30.20 in1022.7 mb - 0.05 in1.3 mm 0.17 in4.3 mm
02:00 AM 35.0°F1.7°C 33.7°F0.9°C 95% 2.9 mph NE4.7 kmh NE 14.0 mph22.5 kmh 30.19 in1022.4 mb - 0.00 in0.0 mm 0.17 in4.3 mm
02:15 AM 35.0°F1.7°C 33.7°F0.9°C 95% 4.8 mph NNE7.7 kmh NNE 9.0 mph14.5 kmh 30.18 in1022.0 mb - 0.01 in0.3 mm 0.18 in4.6 mm
02:30 AM 35.1°F1.7°C 33.8°F1.0°C 95% 4.4 mph NE7.1 kmh NE 12.0 mph19.3 kmh 30.17 in1021.7 mb - 0.01 in0.3 mm 0.19 in4.8 mm
02:45 AM 35.2°F1.8°C 33.9°F1.1°C 95% 4.3 mph NE6.9 kmh NE 10.0 mph16.1 kmh 30.16 in1021.3 mb - 0.00 in0.0 mm 0.19 in4.8 mm
03:00 AM 35.3°F1.8°C 34.0°F1.1°C 95% 4.5 mph N7.2 kmh N 9.0 mph14.5 kmh 30.16 in1021.3 mb - 0.00 in0.0 mm 0.19 in4.8 mm
03:15 AM 35.4°F1.9°C 34.1°F1.2°C 95% 7.7 mph E12.4 kmh E 12.0 mph19.3 kmh 30.14 in1020.7 mb - 0.04 in1.0 mm 0.23 in5.8 mm
03:30 AM 35.4°F1.9°C 34.1°F1.2°C 95% 7.8 mph NE12.6 kmh NE 13.0 mph20.9 kmh 30.13 in1020.3 mb - 0.06 in1.5 mm 0.29 in7.4 mm
03:45 AM 35.4°F1.9°C 34.1°F1.2°C 95% 6.1 mph NE9.8 kmh NE 18.0 mph29.0 kmh 30.11 in1019.6 mb - 0.05 in1.3 mm 0.32 in8.1 mm
04:00 AM 35.5°F1.9°C 34.2°F1.2°C 95% 3.0 mph ENE4.8 kmh ENE 8.0 mph12.9 kmh 30.11 in1019.6 mb - 0.01 in0.3 mm 0.33 in8.4 mm
04:15 AM 35.7°F2.1°C 34.4°F1.3°C 95% 6.4 mph NE10.3 kmh NE 11.0 mph17.7 kmh 30.10 in1019.3 mb - 0.00 in0.0 mm 0.33 in8.4 mm
04:30 AM 35.7°F2.1°C 34.4°F1.3°C 95% 6.7 mph NNE10.8 kmh NNE 13.0 mph20.9 kmh 30.07 in1018.3 mb - 0.01 in0.3 mm 0.34 in8.6 mm
04:45 AM 36.1°F2.3°C 34.8°F1.6°C 95% 4.5 mph NE7.2 kmh NE 5.0 mph8.0 kmh 30.07 in1018.3 mb - 0.01 in0.3 mm 0.35 in8.9 mm
05:00 AM 36.3°F2.4°C 35.0°F1.7°C 95% 2.9 mph NNE4.7 kmh NNE 7.0 mph11.3 kmh 30.07 in1018.3 mb - 0.00 in0.0 mm 0.35 in8.9 mm
05:15 AM 36.4°F2.4°C 35.1°F1.7°C 95% 4.6 mph ENE7.4 kmh ENE 12.0 mph19.3 kmh 30.05 in1017.6 mb - 0.00 in0.0 mm 0.35 in8.9 mm
05:30 AM 36.6°F2.6°C 35.6°F2.0°C 96% 7.2 mph NNE11.6 kmh NNE 12.0 mph19.3 kmh 30.03 in1016.9 mb - 0.01 in0.3 mm 0.36 in9.1 mm
05:45 AM 36.9°F2.7°C 35.6°F2.0°C 95% 4.2 mph NE6.8 kmh NE 10.0 mph16.1 kmh 30.03 in1016.9 mb - 0.01 in0.3 mm 0.37 in9.4 mm
06:00 AM 37.1°F2.8°C 36.1°F2.3°C 96% 5.6 mph NE9.0 kmh NE 13.0 mph20.9 kmh 30.01 in1016.3 mb - 0.00 in0.0 mm 0.37 in9.4 mm
06:15 AM 37.3°F2.9°C 36.3°F2.4°C 96% 9.7 mph NE15.6 kmh NE 17.0 mph27.4 kmh 30.01 in1016.3 mb - 0.01 in0.3 mm 0.38 in9.7 mm
06:30 AM 37.6°F3.1°C 36.3°F2.4°C 95% 9.2 mph NE14.8 kmh NE 20.0 mph32.2 kmh 29.99 in1015.6 mb - 0.04 in1.0 mm 0.42 in10.7 mm
06:45 AM 37.8°F3.2°C 36.8°F2.7°C 96% 4.4 mph WNW7.1 kmh WNW 10.0 mph16.1 kmh 29.99 in1015.6 mb - 0.08 in2.0 mm 0.50 in12.7 mm
07:00 AM 37.9°F3.3°C 36.9°F2.7°C 96% 1.0 mph NE1.6 kmh NE 3.0 mph4.8 kmh 30.00 in1015.9 mb - 0.08 in2.0 mm 0.57 in14.5 mm
07:15 AM 38.3°F3.5°C 37.3°F2.9°C 96% 2.4 mph SE3.9 kmh SE 6.0 mph9.7 kmh 30.01 in1016.3 mb - 0.04 in1.0 mm 0.61 in15.5 mm
07:30 AM 38.5°F3.6°C 37.5°F3.1°C 96% 5.3 mph NNE8.5 kmh NNE 14.0 mph22.5 kmh 29.99 in1015.6 mb - 0.04 in1.0 mm 0.65 in16.5 mm
07:45 AM 38.7°F3.7°C 37.7°F3.2°C 96% 6.4 mph NNE10.3 kmh NNE 15.0 mph24.1 kmh 29.97 in1014.9 mb - 0.02 in0.5 mm 0.67 in17.0 mm
08:00 AM 38.7°F3.7°C 37.7°F3.2°C 96% 7.7 mph NE12.4 kmh NE 11.0 mph17.7 kmh 29.95 in1014.2 mb - 0.03 in0.8 mm 0.70 in17.8 mm
08:15 AM 38.8°F3.8°C 37.8°F3.2°C 96% 4.3 mph NE6.9 kmh NE 11.0 mph17.7 kmh 29.94 in1013.9 mb - 0.02 in0.5 mm 0.72 in18.3 mm
08:30 AM 39.0°F3.9°C 38.0°F3.3°C 96% 4.7 mph NNE7.6 kmh NNE 18.0 mph29.0 kmh 29.92 in1013.2 mb - 0.03 in0.8 mm 0.75 in19.1 mm
08:45 AM 39.1°F3.9°C 38.1°F3.4°C 96% 7.8 mph NNE12.6 kmh NNE 9.0 mph14.5 kmh 29.90 in1012.5 mb - 0.02 in0.5 mm 0.77 in19.6 mm
09:00 AM 39.5°F4.2°C 38.4°F3.6°C 96% 6.6 mph WSW10.6 kmh WSW 13.0 mph20.9 kmh 29.89 in1012.2 mb - 0.11 in2.8 mm 0.87 in22.1 mm
09:15 AM 39.7°F4.3°C 38.7°F3.7°C 96% 4.6 mph NNE7.4 kmh NNE 12.0 mph19.3 kmh 29.87 in1011.5 mb - 0.04 in1.0 mm 0.89 in22.6 mm
09:30 AM 40.0°F4.4°C 39.0°F3.9°C 96% 7.3 mph N11.7 kmh N 9.0 mph14.5 kmh 29.85 in1010.8 mb - 0.05 in1.3 mm 0.94 in23.9 mm
09:45 AM 40.4°F4.7°C 39.4°F4.1°C 96% 7.3 mph NNE11.7 kmh NNE 9.0 mph14.5 kmh 29.83 in1010.2 mb - 0.08 in2.0 mm 1.01 in25.7 mm
10:00 AM 40.3°F4.6°C 39.2°F4.0°C 96% 8.6 mph N13.8 kmh N 15.0 mph24.1 kmh 29.84 in1010.5 mb - 0.09 in2.3 mm 1.10 in27.9 mm
10:15 AM 40.4°F4.7°C 39.4°F4.1°C 96% 4.9 mph N7.9 kmh N 9.0 mph14.5 kmh 29.82 in1009.8 mb - 0.06 in1.5 mm 1.15 in29.2 mm
10:30 AM 40.8°F4.9°C 39.8°F4.3°C 96% 7.2 mph WSW11.6 kmh WSW 12.0 mph19.3 kmh 29.79 in1008.8 mb - 0.00 in0.0 mm 1.15 in29.2 mm
10:45 AM 41.9°F5.5°C 41.1°F5.1°C 97% 7.6 mph NE12.2 kmh NE 15.0 mph24.1 kmh 29.78 in1008.5 mb - 0.07 in1.8 mm 1.22 in31.0 mm
11:00 AM 42.9°F6.1°C 42.1°F5.6°C 97% 3.9 mph NE6.3 kmh NE 5.0 mph8.0 kmh 29.81 in1009.5 mb - 0.13 in3.3 mm 1.35 in34.3 mm
11:15 AM 42.9°F6.1°C 42.1°F5.6°C 97% 5.1 mph NNE8.2 kmh NNE 12.0 mph19.3 kmh 29.77 in1008.1 mb - 0.33 in8.4 mm 1.67 in42.4 mm
11:30 AM 43.3°F6.3°C 42.5°F5.8°C 97% 0.9 mph N1.4 kmh N 7.0 mph11.3 kmh 29.78 in1008.5 mb - 0.15 in3.8 mm 1.79 in45.5 mm
11:45 AM 42.8°F6.0°C 42.0°F5.6°C 97% 5.0 mph WSW8.0 kmh WSW 7.0 mph11.3 kmh 29.76 in1007.8 mb - 0.21 in5.3 mm 1.98 in50.3 mm
12:00 PM 42.7°F5.9°C 41.9°F5.5°C 97% 1.4 mph N2.3 kmh N 7.0 mph11.3 kmh 29.70 in1005.8 mb - 0.12 in3.0 mm 2.10 in53.3 mm
12:15 PM 42.2°F5.7°C 41.1°F5.1°C 96% 4.8 mph W7.7 kmh W 15.0 mph24.1 kmh 29.69 in1005.4 mb - 0.16 in4.1 mm 2.26 in57.4 mm
12:30 PM 42.3°F5.7°C 41.5°F5.3°C 97% 10.3 mph SW16.6 kmh SW 15.0 mph24.1 kmh 29.65 in1004.1 mb - 0.24 in6.1 mm 2.49 in63.2 mm
12:45 PM 44.9°F7.2°C 44.1°F6.7°C 97% 2.5 mph WSW4.0 kmh WSW 8.0 mph12.9 kmh 29.64 in1003.7 mb - 0.13 in3.3 mm 2.59 in65.8 mm
01:00 PM 45.4°F7.4°C 44.6°F7.0°C 97% 0.1 mph NE0.2 kmh NE 1.0 mph1.6 kmh 29.66 in1004.4 mb - 0.08 in2.0 mm 2.65 in67.3 mm
01:15 PM 46.7°F8.2°C 46.2°F7.9°C 98% Calm Calm -- 29.66 in1004.4 mb - 0.06 in1.5 mm 2.71 in68.8 mm
01:30 PM 49.6°F9.8°C 49.0°F9.4°C 98% 2.1 mph ENE3.4 kmh ENE 5.0 mph8.0 kmh 29.62 in1003.0 mb - 0.04 in1.0 mm 2.75 in69.9 mm
01:45 PM 55.0°F12.8°C 54.5°F12.5°C 98% 6.7 mph SE10.8 kmh SE 14.0 mph22.5 kmh 29.62 in1003.0 mb - 0.01 in0.3 mm 2.76 in70.1 mm
02:00 PM 55.9°F13.3°C 55.3°F12.9°C 98% 5.7 mph SE9.2 kmh SE 11.0 mph17.7 kmh 29.62 in1003.0 mb - 0.03 in0.8 mm 2.79 in70.9 mm
02:15 PM 55.8°F13.2°C 55.2°F12.9°C 98% 4.6 mph ESE7.4 kmh ESE 9.0 mph14.5 kmh 29.61 in1002.7 mb - 0.02 in0.5 mm 2.80 in71.1 mm
02:30 PM 56.3°F13.5°C 55.7°F13.2°C 98% 4.6 mph ESE7.4 kmh ESE 11.0 mph17.7 kmh 29.60 in1002.4 mb - 0.00 in0.0 mm 2.80 in71.1 mm
02:45 PM 56.7°F13.7°C 56.1°F13.4°C 98% 8.5 mph SE13.7 kmh SE 10.0 mph16.1 kmh 29.60 in1002.4 mb - 0.00 in0.0 mm 2.80 in71.1 mm
03:00 PM 56.3°F13.5°C 55.8°F13.2°C 98% 6.2 mph SE10.0 kmh SE 9.0 mph14.5 kmh 29.59 in1002.0 mb - 0.00 in0.0 mm 2.80 in71.1 mm
03:15 PM 55.7°F13.2°C 54.8°F12.7°C 97% 5.5 mph SE8.9 kmh SE 12.0 mph19.3 kmh 29.57 in1001.4 mb - 0.00 in0.0 mm 2.80 in71.1 mm
03:30 PM 55.0°F12.8°C 54.2°F12.3°C 97% 4.0 mph SE6.4 kmh SE 4.0 mph6.4 kmh 29.56 in1001.0 mb - 0.00 in0.0 mm 2.80 in71.1 mm
03:45 PM 54.8°F12.7°C 53.9°F12.2°C 97% 0.9 mph S1.4 kmh S 11.0 mph17.7 kmh 29.56 in1001.0 mb - 0.00 in0.0 mm 2.80 in71.1 mm
04:00 PM 53.9°F12.2°C 53.1°F11.7°C 97% 1.5 mph E2.4 kmh E 8.0 mph12.9 kmh 29.56 in1001.0 mb - 0.00 in0.0 mm 2.80 in71.1 mm
04:15 PM 53.5°F11.9°C 52.6°F11.4°C 97% 3.3 mph SE5.3 kmh SE 7.0 mph11.3 kmh 29.55 in1000.7 mb - 0.00 in0.0 mm 2.80 in71.1 mm
04:30 PM 53.7°F12.1°C 52.9°F11.6°C 97% 1.2 mph SE1.9 kmh SE -- 29.53 in1000.0 mb - 0.00 in0.0 mm 2.80 in71.1 mm
04:45 PM 54.0°F12.2°C 53.2°F11.8°C 97% 0.6 mph E1.0 kmh E 10.0 mph16.1 kmh 29.53 in1000.0 mb - 0.00 in0.0 mm 2.80 in71.1 mm
05:00 PM 54.9°F12.7°C 54.1°F12.3°C 97% 0.1 mph SE0.2 kmh SE 2.0 mph3.2 kmh 29.53 in1000.0 mb - 0.00 in0.0 mm 2.80 in71.1 mm
05:15 PM 55.0°F12.8°C 53.6°F12.0°C 95% 2.5 mph ESE4.0 kmh ESE 10.0 mph16.1 kmh 29.52 in999.7 mb - 0.00 in0.0 mm 2.80 in71.1 mm
05:30 PM 54.3°F12.4°C 51.7°F10.9°C 91% 3.5 mph S5.6 kmh S 5.0 mph8.0 kmh 29.52 in999.7 mb - 0.00 in0.0 mm 2.80 in71.1 mm
05:45 PM 54.2°F12.3°C 50.1°F10.1°C 86% 3.8 mph SSE6.1 kmh SSE 15.0 mph24.1 kmh 29.50 in999.0 mb - 0.00 in0.0 mm 2.80 in71.1 mm
06:00 PM 53.4°F11.9°C 48.7°F9.3°C 84% 3.3 mph SE5.3 kmh SE 10.0 mph16.1 kmh 29.50 in999.0 mb - 0.00 in0.0 mm 2.80 in71.1 mm
06:15 PM 52.9°F11.6°C 48.2°F9.0°C 84% Calm Calm -- 29.50 in999.0 mb - 0.00 in0.0 mm 2.80 in71.1 mm
06:30 PM 52.7°F11.5°C 48.3°F9.1°C 85% Calm Calm 9.0 mph14.5 kmh 29.50 in999.0 mb - 0.00 in0.0 mm 2.80 in71.1 mm
06:45 PM 52.3°F11.3°C 47.9°F8.8°C 85% 0.5 mph SE0.8 kmh SE 6.0 mph9.7 kmh 29.50 in999.0 mb - 0.00 in0.0 mm 2.80 in71.1 mm
07:00 PM 51.8°F11.0°C 47.7°F8.7°C 86% Calm Calm -- 29.50 in999.0 mb - 0.00 in0.0 mm 2.80 in71.1 mm
07:15 PM 51.3°F10.7°C 47.3°F8.5°C 86% Calm Calm -- 29.50 in999.0 mb - 0.00 in0.0 mm 2.80 in71.1 mm
07:30 PM 50.8°F10.4°C 47.1°F8.4°C 87% Calm Calm -- 29.50 in999.0 mb - 0.00 in0.0 mm 2.80 in71.1 mm
07:45 PM 50.3°F10.2°C 46.6°F8.1°C 87% Calm Calm -- 29.50 in999.0 mb - 0.00 in0.0 mm 2.80 in71.1 mm
08:00 PM 49.8°F9.9°C 46.4°F8.0°C 88% 2.1 mph SE3.4 kmh SE 8.0 mph12.9 kmh 29.50 in999.0 mb - 0.00 in0.0 mm 2.80 in71.1 mm
08:15 PM 49.4°F9.7°C 46.0°F7.8°C 88% Calm Calm -- 29.50 in999.0 mb - 0.00 in0.0 mm 2.80 in71.1 mm
08:30 PM 48.9°F9.4°C 45.8°F7.7°C 89% Calm Calm -- 29.50 in999.0 mb - 0.00 in0.0 mm 2.80 in71.1 mm
08:45 PM 48.4°F9.1°C 45.3°F7.4°C 89% Calm Calm -- 29.51 in999.3 mb - 0.00 in0.0 mm 2.80 in71.1 mm
09:00 PM 48.1°F8.9°C 45.3°F7.4°C 90% Calm Calm -- 29.51 in999.3 mb - 0.00 in0.0 mm 2.80 in71.1 mm
09:15 PM 47.9°F8.8°C 45.4°F7.4°C 91% Calm Calm -- 29.51 in999.3 mb - 0.00 in0.0 mm 2.80 in71.1 mm
09:30 PM 47.7°F8.7°C 45.2°F7.3°C 91% Calm Calm -- 29.51 in999.3 mb - 0.00 in0.0 mm 2.80 in71.1 mm
09:45 PM 47.6°F8.7°C 45.4°F7.4°C 92% Calm Calm -- 29.51 in999.3 mb - 0.00 in0.0 mm 2.80 in71.1 mm
10:00 PM 47.5°F8.6°C 45.3°F7.4°C 92% Calm Calm -- 29.52 in999.7 mb - 0.00 in0.0 mm 2.80 in71.1 mm
10:15 PM 47.4°F8.6°C 45.5°F7.5°C 93% Calm Calm -- 29.52 in999.7 mb - 0.00 in0.0 mm 2.80 in71.1 mm
10:30 PM 47.6°F8.7°C 45.7°F7.6°C 93% Calm Calm -- 29.51 in999.3 mb - 0.00 in0.0 mm 2.80 in71.1 mm
10:45 PM 48.0°F8.9°C 45.7°F7.6°C 92% Calm Calm -- 29.51 in999.3 mb - 0.00 in0.0 mm 2.80 in71.1 mm
11:00 PM 48.5°F9.2°C 46.0°F7.8°C 91% Calm Calm 3.0 mph4.8 kmh 29.52 in999.7 mb - 0.00 in0.0 mm 2.80 in71.1 mm
11:15 PM 48.7°F9.3°C 44.7°F7.1°C 86% 4.3 mph S6.9 kmh S 9.0 mph14.5 kmh 29.52 in999.7 mb - 0.00 in0.0 mm 2.80 in71.1 mm
11:30 PM 48.2°F9.0°C 43.0°F6.1°C 82% Calm Calm -- 29.52 in999.7 mb - 0.00 in0.0 mm 2.80 in71.1 mm
11:45 PM 47.5°F8.6°C 42.3°F5.7°C 82% Calm Calm -- 29.53 in1000.0 mb - 0.00 in0.0 mm 2.80 in71.1 mm